sensor_id;sensor_type;location;lat;lon;timestamp;temperature;humidity
53844;DHT22;39744;53.314;5.710;2023-01-01T00:01:20;12.70;99.90
53844;DHT22;39744;53.314;5.710;2023-01-01T00:03:50;12.70;99.90
53844;DHT22;39744;53.314;5.710;2023-01-01T00:06:16;12.70;99.90
53844;DHT22;39744;53.314;5.710;2023-01-01T00:08:41;12.70;99.90
53844;DHT22;39744;53.314;5.710;2023-01-01T00:11:08;12.60;99.90
53844;DHT22;39744;53.314;5.710;2023-01-01T00:13:37;12.60;99.90
53844;DHT22;39744;53.314;5.710;2023-01-01T00:16:12;12.60;99.90
53844;DHT22;39744;53.314;5.710;2023-01-01T00:18:39;12.60;99.90
53844;DHT22;39744;53.314;5.710;2023-01-01T00:21:12;12.70;99.90
53844;DHT22;39744;53.314;5.710;2023-01-01T00:23:38;12.60;99.90
53844;DHT22;39744;53.314;5.710;2023-01-01T00:26:15;12.60;99.90
53844;DHT22;39744;53.314;5.710;2023-01-01T00:28:41;12.60;99.90
53844;DHT22;39744;53.314;5.710;2023-01-01T00:31:10;12.60;99.90
53844;DHT22;39744;53.314;5.710;2023-01-01T00:33:36;12.60;99.90
53844;DHT22;39744;53.314;5.710;2023-01-01T00:36:12;12.60;99.90
53844;DHT22;39744;53.314;5.710;2023-01-01T00:38:39;12.60;99.90
53844;DHT22;39744;53.314;5.710;2023-01-01T00:41:05;12.70;99.90
53844;DHT22;39744;53.314;5.710;2023-01-01T00:43:31;12.60;99.90
53844;DHT22;39744;53.314;5.710;2023-01-01T00:45:57;12.70;99.90
53844;DHT22;39744;53.314;5.710;2023-01-01T00:48:22;12.60;99.90
53844;DHT22;39744;53.314;5.710;2023-01-01T00:50:49;12.60;99.90
53844;DHT22;39744;53.314;5.710;2023-01-01T00:53:15;12.60;99.90
53844;DHT22;39744;53.314;5.710;2023-01-01T00:55:42;12.60;99.90
53844;DHT22;39744;53.314;5.710;2023-01-01T00:58:09;12.50;99.90
53844;DHT22;39744;53.314;5.710;2023-01-01T01:00:38;12.60;99.90
53844;DHT22;39744;53.314;5.710;2023-01-01T01:03:04;12.60;99.90
53844;DHT22;39744;53.314;5.710;2023-01-01T01:05:30;12.50;99.90
53844;DHT22;39744;53.314;5.710;2023-01-01T01:07:57;12.50;99.90
53844;DHT22;39744;53.314;5.710;2023-01-01T01:10:22;12.50;99.90
53844;DHT22;39744;53.314;5.710;2023-01-01T01:12:53;12.40;99.90
53844;DHT22;39744;53.314;5.710;2023-01-01T01:15:19;12.40;99.90
53844;DHT22;39744;53.314;5.710;2023-01-01T01:17:44;12.30;99.90
53844;DHT22;39744;53.314;5.710;2023-01-01T01:20:11;12.30;99.90
53844;DHT22;39744;53.314;5.710;2023-01-01T01:22:37;12.20;99.90
53844;DHT22;39744;53.314;5.710;2023-01-01T01:25:04;12.10;99.90
53844;DHT22;39744;53.314;5.710;2023-01-01T01:27:30;12.00;99.90
53844;DHT22;39744;53.314;5.710;2023-01-01T01:29:56;12.00;99.90
53844;DHT22;39744;53.314;5.710;2023-01-01T01:32:22;11.90;99.90
53844;DHT22;39744;53.314;5.710;2023-01-01T01:34:48;11.80;99.90
53844;DHT22;39744;53.314;5.710;2023-01-01T01:37:13;11.70;99.90
53844;DHT22;39744;53.314;5.710;2023-01-01T01:39:39;11.70;99.90
53844;DHT22;39744;53.314;5.710;2023-01-01T01:42:05;11.60;99.90
53844;DHT22;39744;53.314;5.710;2023-01-01T01:44:48;11.60;99.90
53844;DHT22;39744;53.314;5.710;2023-01-01T01:47:27;11.60;99.90
53844;DHT22;39744;53.314;5.710;2023-01-01T01:50:07;11.60;99.90
53844;DHT22;39744;53.314;5.710;2023-01-01T01:52:36;11.60;99.90
53844;DHT22;39744;53.314;5.710;2023-01-01T01:55:04;11.50;99.90
53844;DHT22;39744;53.314;5.710;2023-01-01T01:57:31;11.40;99.90
53844;DHT22;39744;53.314;5.710;2023-01-01T01:59:57;11.40;99.90
53844;DHT22;39744;53.314;5.710;2023-01-01T02:02:34;11.30;99.90
53844;DHT22;39744;53.314;5.710;2023-01-01T02:05:00;11.40;99.90
53844;DHT22;39744;53.314;5.710;2023-01-01T02:07:27;11.30;99.90
53844;DHT22;39744;53.314;5.710;2023-01-01T02:09:54;11.30;99.90
53844;DHT22;39744;53.314;5.710;2023-01-01T02:12:20;11.30;99.90
53844;DHT22;39744;53.314;5.710;2023-01-01T02:14:46;11.20;99.90
53844;DHT22;39744;53.314;5.710;2023-01-01T02:17:21;11.20;99.90
53844;DHT22;39744;53.314;5.710;2023-01-01T02:19:54;11.20;99.90
53844;DHT22;39744;53.314;5.710;2023-01-01T02:22:46;11.30;99.90
53844;DHT22;39744;53.314;5.710;2023-01-01T02:28:06;11.30;99.90
53844;DHT22;39744;53.314;5.710;2023-01-01T02:30:35;11.30;99.90
53844;DHT22;39744;53.314;5.710;2023-01-01T02:33:07;11.30;99.90
53844;DHT22;39744;53.314;5.710;2023-01-01T02:35:45;11.30;99.90
53844;DHT22;39744;53.314;5.710;2023-01-01T02:38:20;11.30;99.90
53844;DHT22;39744;53.314;5.710;2023-01-01T02:40:49;11.30;99.90
53844;DHT22;39744;53.314;5.710;2023-01-01T02:43:16;11.30;99.90
53844;DHT22;39744;53.314;5.710;2023-01-01T02:45:42;11.30;99.90
53844;DHT22;39744;53.314;5.710;2023-01-01T02:51:08;11.30;99.90
53844;DHT22;39744;53.314;5.710;2023-01-01T02:53:59;11.20;99.90
53844;DHT22;39744;53.314;5.710;2023-01-01T02:56:42;11.20;99.90
53844;DHT22;39744;53.314;5.710;2023-01-01T03:02:53;11.20;99.90
53844;DHT22;39744;53.314;5.710;2023-01-01T03:05:46;11.20;99.90
53844;DHT22;39744;53.314;5.710;2023-01-01T03:08:45;11.10;99.90
53844;DHT22;39744;53.314;5.710;2023-01-01T03:11:16;11.10;99.90
53844;DHT22;39744;53.314;5.710;2023-01-01T03:16:26;11.00;99.90
53844;DHT22;39744;53.314;5.710;2023-01-01T03:19:17;11.00;99.90
53844;DHT22;39744;53.314;5.710;2023-01-01T03:21:55;11.00;99.90
53844;DHT22;39744;53.314;5.710;2023-01-01T03:24:26;11.00;99.90
53844;DHT22;39744;53.314;5.710;2023-01-01T03:26:57;11.00;99.90
53844;DHT22;39744;53.314;5.710;2023-01-01T03:29:29;10.90;99.90
53844;DHT22;39744;53.314;5.710;2023-01-01T03:31:57;10.90;99.90
53844;DHT22;39744;53.314;5.710;2023-01-01T03:34:34;10.90;99.90
53844;DHT22;39744;53.314;5.710;2023-01-01T03:37:04;10.90;99.90
53844;DHT22;39744;53.314;5.710;2023-01-01T03:39:38;10.80;99.90
53844;DHT22;39744;53.314;5.710;2023-01-01T03:45:06;10.80;99.90
53844;DHT22;39744;53.314;5.710;2023-01-01T03:47:34;10.80;99.90
53844;DHT22;39744;53.314;5.710;2023-01-01T03:50:00;10.80;99.90
53844;DHT22;39744;53.314;5.710;2023-01-01T03:52:56;10.80;99.90
53844;DHT22;39744;53.314;5.710;2023-01-01T03:55:31;10.80;99.90
53844;DHT22;39744;53.314;5.710;2023-01-01T03:58:17;10.80;99.90
53844;DHT22;39744;53.314;5.710;2023-01-01T04:01:01;10.80;99.90
53844;DHT22;39744;53.314;5.710;2023-01-01T04:03:28;10.80;99.90
53844;DHT22;39744;53.314;5.710;2023-01-01T04:05:55;10.80;99.90
53844;DHT22;39744;53.314;5.710;2023-01-01T04:08:21;10.70;99.90
53844;DHT22;39744;53.314;5.710;2023-01-01T04:10:57;10.70;99.90
53844;DHT22;39744;53.314;5.710;2023-01-01T04:13:24;10.70;99.90
53844;DHT22;39744;53.314;5.710;2023-01-01T04:15:50;10.70;99.90
53844;DHT22;39744;53.314;5.710;2023-01-01T04:18:16;10.70;99.90
53844;DHT22;39744;53.314;5.710;2023-01-01T04:20:41;10.70;99.90
53844;DHT22;39744;53.314;5.710;2023-01-01T04:23:07;10.70;99.90
53844;DHT22;39744;53.314;5.710;2023-01-01T04:25:33;10.70;99.90
53844;DHT22;39744;53.314;5.710;2023-01-01T04:27:58;10.70;99.90
53844;DHT22;39744;53.314;5.710;2023-01-01T04:30:28;10.60;99.90
53844;DHT22;39744;53.314;5.710;2023-01-01T04:32:54;10.70;99.90
53844;DHT22;39744;53.314;5.710;2023-01-01T04:35:19;10.60;99.90
53844;DHT22;39744;53.314;5.710;2023-01-01T04:37:45;10.70;99.90
53844;DHT22;39744;53.314;5.710;2023-01-01T04:40:11;10.70;99.90
53844;DHT22;39744;53.314;5.710;2023-01-01T04:42:38;10.70;99.90
53844;DHT22;39744;53.314;5.710;2023-01-01T04:45:05;10.70;99.90
53844;DHT22;39744;53.314;5.710;2023-01-01T04:47:30;10.70;99.90
53844;DHT22;39744;53.314;5.710;2023-01-01T04:49:56;10.80;99.90
53844;DHT22;39744;53.314;5.710;2023-01-01T04:52:22;10.80;99.90
53844;DHT22;39744;53.314;5.710;2023-01-01T04:54:47;10.80;99.90
53844;DHT22;39744;53.314;5.710;2023-01-01T04:57:13;10.80;99.90
53844;DHT22;39744;53.314;5.710;2023-01-01T04:59:39;10.80;99.90
53844;DHT22;39744;53.314;5.710;2023-01-01T05:02:05;10.80;99.90
53844;DHT22;39744;53.314;5.710;2023-01-01T05:04:31;10.80;99.90
53844;DHT22;39744;53.314;5.710;2023-01-01T05:06:57;10.80;99.90
53844;DHT22;39744;53.314;5.710;2023-01-01T05:09:22;10.80;99.90
53844;DHT22;39744;53.314;5.710;2023-01-01T05:11:48;10.80;99.90
53844;DHT22;39744;53.314;5.710;2023-01-01T05:14:14;10.80;99.90
53844;DHT22;39744;53.314;5.710;2023-01-01T05:16:40;10.80;99.90
53844;DHT22;39744;53.314;5.710;2023-01-01T05:19:06;10.70;99.90
53844;DHT22;39744;53.314;5.710;2023-01-01T05:21:35;10.70;99.90
53844;DHT22;39744;53.314;5.710;2023-01-01T05:24:07;10.70;99.90
53844;DHT22;39744;53.314;5.710;2023-01-01T05:26:35;10.70;99.90
53844;DHT22;39744;53.314;5.710;2023-01-01T05:29:03;10.60;99.90
53844;DHT22;39744;53.314;5.710;2023-01-01T05:31:31;10.60;99.90
53844;DHT22;39744;53.314;5.710;2023-01-01T05:33:57;10.60;99.90
53844;DHT22;39744;53.314;5.710;2023-01-01T05:36:28;10.60;99.90
53844;DHT22;39744;53.314;5.710;2023-01-01T05:38:55;10.60;99.90
53844;DHT22;39744;53.314;5.710;2023-01-01T05:41:21;10.50;99.90
53844;DHT22;39744;53.314;5.710;2023-01-01T05:43:47;10.60;99.90
53844;DHT22;39744;53.314;5.710;2023-01-01T05:46:18;10.60;99.90
53844;DHT22;39744;53.314;5.710;2023-01-01T05:48:44;10.60;99.90
53844;DHT22;39744;53.314;5.710;2023-01-01T05:51:16;10.50;99.90
53844;DHT22;39744;53.314;5.710;2023-01-01T05:53:43;10.50;99.90
53844;DHT22;39744;53.314;5.710;2023-01-01T05:56:12;10.50;99.90
53844;DHT22;39744;53.314;5.710;2023-01-01T05:58:38;10.50;99.90
53844;DHT22;39744;53.314;5.710;2023-01-01T06:01:16;10.50;99.90
53844;DHT22;39744;53.314;5.710;2023-01-01T06:03:42;10.50;99.90
53844;DHT22;39744;53.314;5.710;2023-01-01T06:06:13;10.40;99.90
53844;DHT22;39744;53.314;5.710;2023-01-01T06:08:39;10.40;99.90
53844;DHT22;39744;53.314;5.710;2023-01-01T06:11:07;10.40;99.90
53844;DHT22;39744;53.314;5.710;2023-01-01T06:13:33;10.40;99.90
53844;DHT22;39744;53.314;5.710;2023-01-01T06:16:00;10.40;99.90
53844;DHT22;39744;53.314;5.710;2023-01-01T06:18:29;10.40;99.90
53844;DHT22;39744;53.314;5.710;2023-01-01T06:20:54;10.40;99.90
53844;DHT22;39744;53.314;5.710;2023-01-01T06:23:20;10.40;99.90
53844;DHT22;39744;53.314;5.710;2023-01-01T06:25:46;10.40;99.90
53844;DHT22;39744;53.314;5.710;2023-01-01T06:28:11;10.40;99.90
53844;DHT22;39744;53.314;5.710;2023-01-01T06:30:37;10.40;99.90
53844;DHT22;39744;53.314;5.710;2023-01-01T06:33:03;10.40;99.90
53844;DHT22;39744;53.314;5.710;2023-01-01T06:35:29;10.40;99.90
53844;DHT22;39744;53.314;5.710;2023-01-01T06:37:55;10.40;99.90
53844;DHT22;39744;53.314;5.710;2023-01-01T06:40:22;10.40;99.90
53844;DHT22;39744;53.314;5.710;2023-01-01T06:42:48;10.30;99.90
53844;DHT22;39744;53.314;5.710;2023-01-01T06:45:13;10.30;99.90
53844;DHT22;39744;53.314;5.710;2023-01-01T06:47:39;10.30;99.90
53844;DHT22;39744;53.314;5.710;2023-01-01T06:50:05;10.30;99.90
53844;DHT22;39744;53.314;5.710;2023-01-01T06:52:31;10.30;99.90
53844;DHT22;39744;53.314;5.710;2023-01-01T06:54:57;10.20;99.90
53844;DHT22;39744;53.314;5.710;2023-01-01T06:57:23;10.20;99.90
53844;DHT22;39744;53.314;5.710;2023-01-01T06:59:49;10.20;99.90
53844;DHT22;39744;53.314;5.710;2023-01-01T07:02:14;10.20;99.90
53844;DHT22;39744;53.314;5.710;2023-01-01T07:04:40;10.20;99.90
53844;DHT22;39744;53.314;5.710;2023-01-01T07:07:06;10.20;99.90
53844;DHT22;39744;53.314;5.710;2023-01-01T07:09:32;10.10;99.90
53844;DHT22;39744;53.314;5.710;2023-01-01T07:11:58;10.10;99.90
53844;DHT22;39744;53.314;5.710;2023-01-01T07:14:25;10.10;99.90
53844;DHT22;39744;53.314;5.710;2023-01-01T07:16:50;10.10;99.90
53844;DHT22;39744;53.314;5.710;2023-01-01T07:19:16;10.10;99.90
53844;DHT22;39744;53.314;5.710;2023-01-01T07:21:53;10.10;99.90
53844;DHT22;39744;53.314;5.710;2023-01-01T07:24:22;10.10;99.90
53844;DHT22;39744;53.314;5.710;2023-01-01T07:26:47;10.10;99.90
53844;DHT22;39744;53.314;5.710;2023-01-01T07:29:13;10.10;99.90
53844;DHT22;39744;53.314;5.710;2023-01-01T07:31:40;10.10;99.90
53844;DHT22;39744;53.314;5.710;2023-01-01T07:34:13;10.10;99.90
53844;DHT22;39744;53.314;5.710;2023-01-01T07:36:39;10.10;99.90
53844;DHT22;39744;53.314;5.710;2023-01-01T07:39:05;10.10;99.90
53844;DHT22;39744;53.314;5.710;2023-01-01T07:41:31;10.00;99.90
53844;DHT22;39744;53.314;5.710;2023-01-01T07:43:57;10.00;99.90
53844;DHT22;39744;53.314;5.710;2023-01-01T07:46:22;10.00;99.90
53844;DHT22;39744;53.314;5.710;2023-01-01T07:48:48;10.00;99.90
53844;DHT22;39744;53.314;5.710;2023-01-01T07:51:14;10.00;99.90
53844;DHT22;39744;53.314;5.710;2023-01-01T07:53:39;10.00;99.90
53844;DHT22;39744;53.314;5.710;2023-01-01T07:56:05;9.90;99.90
53844;DHT22;39744;53.314;5.710;2023-01-01T07:58:31;9.90;99.90
53844;DHT22;39744;53.314;5.710;2023-01-01T08:00:57;9.90;99.90
53844;DHT22;39744;53.314;5.710;2023-01-01T08:03:22;9.90;99.90
53844;DHT22;39744;53.314;5.710;2023-01-01T08:05:48;9.90;99.90
53844;DHT22;39744;53.314;5.710;2023-01-01T08:08:14;9.90;99.90
53844;DHT22;39744;53.314;5.710;2023-01-01T08:10:39;9.90;99.90
53844;DHT22;39744;53.314;5.710;2023-01-01T08:13:07;9.90;99.90
53844;DHT22;39744;53.314;5.710;2023-01-01T08:15:33;9.90;99.90
53844;DHT22;39744;53.314;5.710;2023-01-01T08:18:00;9.90;99.90
53844;DHT22;39744;53.314;5.710;2023-01-01T08:20:27;9.90;99.90
53844;DHT22;39744;53.314;5.710;2023-01-01T08:22:53;9.80;99.90
53844;DHT22;39744;53.314;5.710;2023-01-01T08:25:19;9.80;99.90
53844;DHT22;39744;53.314;5.710;2023-01-01T08:27:45;9.90;99.90
53844;DHT22;39744;53.314;5.710;2023-01-01T08:30:12;9.70;99.90
53844;DHT22;39744;53.314;5.710;2023-01-01T08:32:39;9.90;99.90
53844;DHT22;39744;53.314;5.710;2023-01-01T08:35:05;9.90;99.90
53844;DHT22;39744;53.314;5.710;2023-01-01T08:37:30;9.90;99.90
53844;DHT22;39744;53.314;5.710;2023-01-01T08:39:56;9.90;99.90
53844;DHT22;39744;53.314;5.710;2023-01-01T08:42:22;9.90;99.90
53844;DHT22;39744;53.314;5.710;2023-01-01T08:44:47;9.90;99.90
53844;DHT22;39744;53.314;5.710;2023-01-01T08:47:31;9.90;99.90
53844;DHT22;39744;53.314;5.710;2023-01-01T08:49:57;9.90;99.90
53844;DHT22;39744;53.314;5.710;2023-01-01T08:52:22;9.90;99.90
53844;DHT22;39744;53.314;5.710;2023-01-01T08:54:48;9.90;99.90
53844;DHT22;39744;53.314;5.710;2023-01-01T08:57:14;10.00;99.90
53844;DHT22;39744;53.314;5.710;2023-01-01T08:59:39;10.00;99.90
53844;DHT22;39744;53.314;5.710;2023-01-01T09:02:05;10.00;99.90
53844;DHT22;39744;53.314;5.710;2023-01-01T09:04:31;10.00;99.90
53844;DHT22;39744;53.314;5.710;2023-01-01T09:06:57;10.00;99.90
53844;DHT22;39744;53.314;5.710;2023-01-01T09:09:22;10.00;99.90
53844;DHT22;39744;53.314;5.710;2023-01-01T09:11:52;10.00;99.90
53844;DHT22;39744;53.314;5.710;2023-01-01T09:14:18;10.00;99.90
53844;DHT22;39744;53.314;5.710;2023-01-01T09:16:44;10.00;99.90
53844;DHT22;39744;53.314;5.710;2023-01-01T09:19:10;10.00;99.90
53844;DHT22;39744;53.314;5.710;2023-01-01T09:21:36;10.00;99.90
53844;DHT22;39744;53.314;5.710;2023-01-01T09:24:02;9.90;99.90
53844;DHT22;39744;53.314;5.710;2023-01-01T09:26:27;10.00;99.90
53844;DHT22;39744;53.314;5.710;2023-01-01T09:28:57;10.00;99.90
53844;DHT22;39744;53.314;5.710;2023-01-01T09:31:22;10.00;99.90
53844;DHT22;39744;53.314;5.710;2023-01-01T09:33:48;10.00;99.90
53844;DHT22;39744;53.314;5.710;2023-01-01T09:36:28;10.10;99.90
53844;DHT22;39744;53.314;5.710;2023-01-01T09:38:55;10.10;99.90
53844;DHT22;39744;53.314;5.710;2023-01-01T09:41:46;10.20;99.90
53844;DHT22;39744;53.314;5.710;2023-01-01T09:46:53;10.20;99.90
53844;DHT22;39744;53.314;5.710;2023-01-01T09:49:37;10.20;99.90
53844;DHT22;39744;53.314;5.710;2023-01-01T09:52:04;10.30;99.90
53844;DHT22;39744;53.314;5.710;2023-01-01T09:57:00;10.30;99.90
53844;DHT22;39744;53.314;5.710;2023-01-01T09:59:28;10.30;99.90
53844;DHT22;39744;53.314;5.710;2023-01-01T10:04:45;10.40;99.90
53844;DHT22;39744;53.314;5.710;2023-01-01T10:07:34;10.40;99.90
53844;DHT22;39744;53.314;5.710;2023-01-01T10:12:40;10.50;99.90
53844;DHT22;39744;53.314;5.710;2023-01-01T10:17:45;10.60;99.90
53844;DHT22;39744;53.314;5.710;2023-01-01T10:20:27;10.70;99.90
53844;DHT22;39744;53.314;5.710;2023-01-01T10:23:00;10.70;99.90
53844;DHT22;39744;53.314;5.710;2023-01-01T10:25:29;10.80;99.90
53844;DHT22;39744;53.314;5.710;2023-01-01T10:28:04;10.80;99.90
53844;DHT22;39744;53.314;5.710;2023-01-01T10:30:31;10.80;99.90
53844;DHT22;39744;53.314;5.710;2023-01-01T10:32:57;10.90;99.90
53844;DHT22;39744;53.314;5.710;2023-01-01T10:35:32;10.90;99.90
53844;DHT22;39744;53.314;5.710;2023-01-01T10:37:59;11.00;99.90
53844;DHT22;39744;53.314;5.710;2023-01-01T10:40:27;11.00;99.90
53844;DHT22;39744;53.314;5.710;2023-01-01T10:42:59;11.00;99.90
53844;DHT22;39744;53.314;5.710;2023-01-01T10:45:34;11.00;99.90
53844;DHT22;39744;53.314;5.710;2023-01-01T10:48:14;11.00;99.90
53844;DHT22;39744;53.314;5.710;2023-01-01T10:53:19;10.90;99.90
53844;DHT22;39744;53.314;5.710;2023-01-01T10:55:56;10.80;99.90
53844;DHT22;39744;53.314;5.710;2023-01-01T11:01:18;10.70;99.90
53844;DHT22;39744;53.314;5.710;2023-01-01T11:04:02;10.70;99.90
53844;DHT22;39744;53.314;5.710;2023-01-01T11:06:43;10.60;99.90
53844;DHT22;39744;53.314;5.710;2023-01-01T11:09:27;10.60;99.90
53844;DHT22;39744;53.314;5.710;2023-01-01T11:11:59;10.50;99.90
53844;DHT22;39744;53.314;5.710;2023-01-01T11:14:41;10.50;99.90
53844;DHT22;39744;53.314;5.710;2023-01-01T11:17:23;10.60;99.90
53844;DHT22;39744;53.314;5.710;2023-01-01T11:19:50;10.60;99.90
53844;DHT22;39744;53.314;5.710;2023-01-01T11:22:39;10.50;99.90
53844;DHT22;39744;53.314;5.710;2023-01-01T11:25:24;10.50;99.90
53844;DHT22;39744;53.314;5.710;2023-01-01T11:27:51;10.50;99.90
53844;DHT22;39744;53.314;5.710;2023-01-01T11:30:23;10.50;99.90
53844;DHT22;39744;53.314;5.710;2023-01-01T11:32:55;10.50;99.90
53844;DHT22;39744;53.314;5.710;2023-01-01T11:35:24;10.60;99.90
53844;DHT22;39744;53.314;5.710;2023-01-01T11:37:52;10.60;99.90
53844;DHT22;39744;53.314;5.710;2023-01-01T11:40:22;10.60;99.90
53844;DHT22;39744;53.314;5.710;2023-01-01T11:42:52;10.70;99.90
53844;DHT22;39744;53.314;5.710;2023-01-01T11:45:42;10.80;99.90
53844;DHT22;39744;53.314;5.710;2023-01-01T11:48:30;10.80;99.90
53844;DHT22;39744;53.314;5.710;2023-01-01T11:50:59;10.80;99.90
53844;DHT22;39744;53.314;5.710;2023-01-01T11:53:31;10.80;99.90
53844;DHT22;39744;53.314;5.710;2023-01-01T12:01:41;10.90;99.90
53844;DHT22;39744;53.314;5.710;2023-01-01T12:04:15;10.80;99.90
53844;DHT22;39744;53.314;5.710;2023-01-01T12:09:34;10.90;99.90
53844;DHT22;39744;53.314;5.710;2023-01-01T12:12:03;10.90;99.90
53844;DHT22;39744;53.314;5.710;2023-01-01T12:14:52;10.90;99.90
53844;DHT22;39744;53.314;5.710;2023-01-01T12:20:07;10.90;99.90
53844;DHT22;39744;53.314;5.710;2023-01-01T12:22:35;10.90;99.90
53844;DHT22;39744;53.314;5.710;2023-01-01T12:25:03;10.90;99.90
53844;DHT22;39744;53.314;5.710;2023-01-01T12:36:17;10.90;99.90
53844;DHT22;39744;53.314;5.710;2023-01-01T12:41:52;10.90;99.90
53844;DHT22;39744;53.314;5.710;2023-01-01T12:47:28;10.80;99.90
53844;DHT22;39744;53.314;5.710;2023-01-01T12:53:16;10.80;99.90
53844;DHT22;39744;53.314;5.710;2023-01-01T12:58:55;10.80;99.90
53844;DHT22;39744;53.314;5.710;2023-01-01T13:01:24;10.80;99.90
53844;DHT22;39744;53.314;5.710;2023-01-01T13:04:00;10.90;99.90
53844;DHT22;39744;53.314;5.710;2023-01-01T13:06:46;10.80;99.90
53844;DHT22;39744;53.314;5.710;2023-01-01T13:09:25;10.80;99.90
53844;DHT22;39744;53.314;5.710;2023-01-01T13:11:58;10.80;99.90
53844;DHT22;39744;53.314;5.710;2023-01-01T13:14:25;10.80;99.90
53844;DHT22;39744;53.314;5.710;2023-01-01T13:16:53;10.80;99.90
53844;DHT22;39744;53.314;5.710;2023-01-01T13:19:31;10.80;99.90
53844;DHT22;39744;53.314;5.710;2023-01-01T13:22:00;10.80;99.90
53844;DHT22;39744;53.314;5.710;2023-01-01T13:33:27;10.80;99.90
53844;DHT22;39744;53.314;5.710;2023-01-01T13:38:56;10.80;99.90
53844;DHT22;39744;53.314;5.710;2023-01-01T13:41:38;10.80;99.90
53844;DHT22;39744;53.314;5.710;2023-01-01T14:03:39;10.70;99.90
53844;DHT22;39744;53.314;5.710;2023-01-01T14:06:29;10.70;99.90
53844;DHT22;39744;53.314;5.710;2023-01-01T14:09:21;10.70;99.90
53844;DHT22;39744;53.314;5.710;2023-01-01T14:11:46;10.70;99.90
53844;DHT22;39744;53.314;5.710;2023-01-01T14:14:22;10.60;99.90
53844;DHT22;39744;53.314;5.710;2023-01-01T14:16:53;10.60;99.90
53844;DHT22;39744;53.314;5.710;2023-01-01T14:19:21;10.60;99.90
53844;DHT22;39744;53.314;5.710;2023-01-01T14:21:47;10.60;99.90
53844;DHT22;39744;53.314;5.710;2023-01-01T14:24:15;10.60;99.90
53844;DHT22;39744;53.314;5.710;2023-01-01T14:26:43;10.50;99.90
53844;DHT22;39744;53.314;5.710;2023-01-01T14:29:28;10.50;99.90
53844;DHT22;39744;53.314;5.710;2023-01-01T14:31:57;10.40;99.90
53844;DHT22;39744;53.314;5.710;2023-01-01T14:34:28;10.50;99.90
53844;DHT22;39744;53.314;5.710;2023-01-01T14:37:02;10.40;99.90
53844;DHT22;39744;53.314;5.710;2023-01-01T14:39:30;10.40;99.90
53844;DHT22;39744;53.314;5.710;2023-01-01T14:42:11;10.40;99.90
53844;DHT22;39744;53.314;5.710;2023-01-01T14:44:43;10.40;99.90
53844;DHT22;39744;53.314;5.710;2023-01-01T14:47:29;10.30;99.90
53844;DHT22;39744;53.314;5.710;2023-01-01T14:50:04;10.30;99.90
53844;DHT22;39744;53.314;5.710;2023-01-01T14:52:35;10.30;99.90
53844;DHT22;39744;53.314;5.710;2023-01-01T14:55:03;10.20;99.90
53844;DHT22;39744;53.314;5.710;2023-01-01T14:57:35;10.20;99.90
53844;DHT22;39744;53.314;5.710;2023-01-01T15:00:22;10.20;99.90
53844;DHT22;39744;53.314;5.710;2023-01-01T15:02:48;10.10;99.90
53844;DHT22;39744;53.314;5.710;2023-01-01T15:05:26;10.10;99.90
53844;DHT22;39744;53.314;5.710;2023-01-01T15:08:00;10.10;99.90
53844;DHT22;39744;53.314;5.710;2023-01-01T15:10:30;10.00;99.90
53844;DHT22;39744;53.314;5.710;2023-01-01T15:12:58;10.00;99.90
53844;DHT22;39744;53.314;5.710;2023-01-01T15:15:39;9.90;99.90
53844;DHT22;39744;53.314;5.710;2023-01-01T15:18:14;9.90;99.90
53844;DHT22;39744;53.314;5.710;2023-01-01T15:20:52;10.00;99.90
53844;DHT22;39744;53.314;5.710;2023-01-01T15:23:19;9.90;99.90
53844;DHT22;39744;53.314;5.710;2023-01-01T15:25:44;9.90;99.90
53844;DHT22;39744;53.314;5.710;2023-01-01T15:28:19;9.90;99.90
53844;DHT22;39744;53.314;5.710;2023-01-01T15:30:53;9.90;99.90
53844;DHT22;39744;53.314;5.710;2023-01-01T15:33:28;9.80;99.90
53844;DHT22;39744;53.314;5.710;2023-01-01T15:35:54;9.80;99.90
53844;DHT22;39744;53.314;5.710;2023-01-01T15:38:30;9.80;99.90
53844;DHT22;39744;53.314;5.710;2023-01-01T15:41:43;9.80;99.90
53844;DHT22;39744;53.314;5.710;2023-01-01T15:44:32;9.80;99.90
53844;DHT22;39744;53.314;5.710;2023-01-01T15:47:15;9.80;99.90
53844;DHT22;39744;53.314;5.710;2023-01-01T15:50:12;9.80;99.90
53844;DHT22;39744;53.314;5.710;2023-01-01T15:52:58;9.70;99.90
53844;DHT22;39744;53.314;5.710;2023-01-01T15:55:27;9.70;99.90
53844;DHT22;39744;53.314;5.710;2023-01-01T15:57:54;9.70;99.90
53844;DHT22;39744;53.314;5.710;2023-01-01T16:00:39;9.70;99.90
53844;DHT22;39744;53.314;5.710;2023-01-01T16:03:19;9.70;99.90
53844;DHT22;39744;53.314;5.710;2023-01-01T16:05:49;9.60;99.90
53844;DHT22;39744;53.314;5.710;2023-01-01T16:08:19;9.60;99.90
53844;DHT22;39744;53.314;5.710;2023-01-01T16:10:46;9.60;99.90
53844;DHT22;39744;53.314;5.710;2023-01-01T16:13:12;9.70;99.90
53844;DHT22;39744;53.314;5.710;2023-01-01T16:15:58;9.60;99.90
53844;DHT22;39744;53.314;5.710;2023-01-01T16:18:30;9.70;99.90
53844;DHT22;39744;53.314;5.710;2023-01-01T16:20:56;9.10;99.90
53844;DHT22;39744;53.314;5.710;2023-01-01T16:23:22;9.50;99.90
53844;DHT22;39744;53.314;5.710;2023-01-01T16:25:48;9.60;99.90
53844;DHT22;39744;53.314;5.710;2023-01-01T16:28:17;9.40;99.90
53844;DHT22;39744;53.314;5.710;2023-01-01T16:30:45;9.60;99.90
53844;DHT22;39744;53.314;5.710;2023-01-01T16:33:16;9.60;99.90
53844;DHT22;39744;53.314;5.710;2023-01-01T16:35:43;9.00;99.90
53844;DHT22;39744;53.314;5.710;2023-01-01T16:38:09;9.00;99.90
53844;DHT22;39744;53.314;5.710;2023-01-01T16:40:58;9.70;99.90
53844;DHT22;39744;53.314;5.710;2023-01-01T16:43:34;9.80;99.90
53844;DHT22;39744;53.314;5.710;2023-01-01T16:46:07;9.40;99.90
53844;DHT22;39744;53.314;5.710;2023-01-01T16:48:38;9.30;99.90
53844;DHT22;39744;53.314;5.710;2023-01-01T16:51:27;9.40;99.90
53844;DHT22;39744;53.314;5.710;2023-01-01T16:53:53;9.30;99.90
53844;DHT22;39744;53.314;5.710;2023-01-01T16:56:26;8.90;99.90
53844;DHT22;39744;53.314;5.710;2023-01-01T16:58:55;9.20;99.90
53844;DHT22;39744;53.314;5.710;2023-01-01T17:01:24;9.20;99.90
53844;DHT22;39744;53.314;5.710;2023-01-01T17:03:51;9.20;99.90
53844;DHT22;39744;53.314;5.710;2023-01-01T17:06:18;9.20;99.90
53844;DHT22;39744;53.314;5.710;2023-01-01T17:08:47;9.20;99.90
53844;DHT22;39744;53.314;5.710;2023-01-01T17:11:19;9.20;99.90
53844;DHT22;39744;53.314;5.710;2023-01-01T17:13:48;9.10;99.90
53844;DHT22;39744;53.314;5.710;2023-01-01T17:16:15;9.10;99.90
53844;DHT22;39744;53.314;5.710;2023-01-01T17:18:45;9.10;99.90
53844;DHT22;39744;53.314;5.710;2023-01-01T17:21:13;9.20;99.90
53844;DHT22;39744;53.314;5.710;2023-01-01T17:23:39;9.10;99.90
53844;DHT22;39744;53.314;5.710;2023-01-01T17:26:14;9.00;99.90
53844;DHT22;39744;53.314;5.710;2023-01-01T17:28:40;9.10;99.90
53844;DHT22;39744;53.314;5.710;2023-01-01T17:31:09;9.00;99.90
53844;DHT22;39744;53.314;5.710;2023-01-01T17:33:37;9.00;99.90